sensor_id;sensor_type;location;lat;lon;timestamp;P1;durP1;ratioP1;P2;durP2;ratioP2
29414;SDS011;20303;48.302;11.914;2022-11-25T00:07:23;10.65;;;5.10;;
29414;SDS011;20303;48.302;11.914;2022-11-25T00:27:25;9.57;;;4.77;;
29414;SDS011;20303;48.302;11.914;2022-11-25T00:37:26;7.25;;;4.53;;
29414;SDS011;20303;48.302;11.914;2022-11-25T00:57:28;7.67;;;4.33;;
29414;SDS011;20303;48.302;11.914;2022-11-25T01:17:30;5.80;;;4.03;;
29414;SDS011;20303;48.302;11.914;2022-11-25T01:27:32;6.43;;;3.80;;
29414;SDS011;20303;48.302;11.914;2022-11-25T01:37:33;6.35;;;3.85;;
29414;SDS011;20303;48.302;11.914;2022-11-25T01:57:39;4.97;;;3.40;;
29414;SDS011;20303;48.302;11.914;2022-11-25T02:07:43;6.13;;;3.58;;
29414;SDS011;20303;48.302;11.914;2022-11-25T02:17:46;5.03;;;3.08;;
29414;SDS011;20303;48.302;11.914;2022-11-25T02:27:48;5.55;;;3.50;;
29414;SDS011;20303;48.302;11.914;2022-11-25T02:38:12;4.95;;;3.17;;
29414;SDS011;20303;48.302;11.914;2022-11-25T02:48:15;4.13;;;3.05;;
29414;SDS011;20303;48.302;11.914;2022-11-25T03:08:18;4.60;;;2.97;;
29414;SDS011;20303;48.302;11.914;2022-11-25T03:28:20;5.03;;;2.97;;
29414;SDS011;20303;48.302;11.914;2022-11-25T03:38:22;4.20;;;2.80;;
29414;SDS011;20303;48.302;11.914;2022-11-25T03:58:24;4.32;;;2.60;;
29414;SDS011;20303;48.302;11.914;2022-11-25T04:18:26;3.13;;;2.37;;
29414;SDS011;20303;48.302;11.914;2022-11-25T04:28:27;3.08;;;2.40;;
29414;SDS011;20303;48.302;11.914;2022-11-25T04:48:29;4.03;;;2.10;;
29414;SDS011;20303;48.302;11.914;2022-11-25T04:58:30;2.63;;;2.00;;
29414;SDS011;20303;48.302;11.914;2022-11-25T05:08:50;3.53;;;2.15;;
29414;SDS011;20303;48.302;11.914;2022-11-25T05:18:53;2.38;;;1.90;;
29414;SDS011;20303;48.302;11.914;2022-11-25T05:28:55;2.70;;;1.90;;
29414;SDS011;20303;48.302;11.914;2022-11-25T05:48:58;2.97;;;2.00;;
29414;SDS011;20303;48.302;11.914;2022-11-25T06:09:00;2.20;;;1.80;;
29414;SDS011;20303;48.302;11.914;2022-11-25T06:29:05;2.42;;;1.90;;
29414;SDS011;20303;48.302;11.914;2022-11-25T06:49:07;2.87;;;1.93;;
29414;SDS011;20303;48.302;11.914;2022-11-25T07:09:09;4.40;;;2.10;;
29414;SDS011;20303;48.302;11.914;2022-11-25T07:29:14;5.25;;;2.53;;
29414;SDS011;20303;48.302;11.914;2022-11-25T07:39:17;7.82;;;2.70;;
29414;SDS011;20303;48.302;11.914;2022-11-25T07:49:21;10.07;;;2.85;;
29414;SDS011;20303;48.302;11.914;2022-11-25T07:59:28;9.13;;;3.00;;
29414;SDS011;20303;48.302;11.914;2022-11-25T08:09:29;5.97;;;2.80;;
29414;SDS011;20303;48.302;11.914;2022-11-25T08:19:35;9.68;;;3.28;;
29414;SDS011;20303;48.302;11.914;2022-11-25T08:29:41;7.63;;;3.53;;
29414;SDS011;20303;48.302;11.914;2022-11-25T08:39:42;8.95;;;3.78;;
29414;SDS011;20303;48.302;11.914;2022-11-25T08:59:44;8.70;;;3.93;;
29414;SDS011;20303;48.302;11.914;2022-11-25T09:09:45;7.85;;;3.72;;
29414;SDS011;20303;48.302;11.914;2022-11-25T09:19:46;8.90;;;3.97;;
29414;SDS011;20303;48.302;11.914;2022-11-25T09:29:47;8.77;;;3.63;;
29414;SDS011;20303;48.302;11.914;2022-11-25T09:39:50;9.98;;;3.78;;
29414;SDS011;20303;48.302;11.914;2022-11-25T09:50:03;6.40;;;3.53;;
29414;SDS011;20303;48.302;11.914;2022-11-25T10:00:37;7.10;;;3.47;;
29414;SDS011;20303;48.302;11.914;2022-11-25T10:10:47;9.40;;;3.40;;
29414;SDS011;20303;48.302;11.914;2022-11-25T10:20:55;7.57;;;3.42;;
29414;SDS011;20303;48.302;11.914;2022-11-25T10:41:06;7.75;;;3.00;;
29414;SDS011;20303;48.302;11.914;2022-11-25T11:01:34;5.90;;;3.00;;
29414;SDS011;20303;48.302;11.914;2022-11-25T11:11:45;6.55;;;3.40;;
29414;SDS011;20303;48.302;11.914;2022-11-25T11:21:47;6.20;;;3.00;;
29414;SDS011;20303;48.302;11.914;2022-11-25T11:31:55;4.95;;;2.50;;
29414;SDS011;20303;48.302;11.914;2022-11-25T11:52:25;8.05;;;4.05;;
29414;SDS011;20303;48.302;11.914;2022-11-25T12:02:57;7.25;;;3.40;;
29414;SDS011;20303;48.302;11.914;2022-11-25T12:23:49;5.90;;;3.10;;
29414;SDS011;20303;48.302;11.914;2022-11-25T12:34:05;6.28;;;3.20;;
29414;SDS011;20303;48.302;11.914;2022-11-25T12:44:32;5.05;;;2.80;;
29414;SDS011;20303;48.302;11.914;2022-11-25T13:15:40;4.60;;;2.78;;
29414;SDS011;20303;48.302;11.914;2022-11-25T13:25:46;6.45;;;2.53;;
29414;SDS011;20303;48.302;11.914;2022-11-25T13:35:49;7.03;;;2.80;;
29414;SDS011;20303;48.302;11.914;2022-11-25T13:45:54;8.48;;;2.90;;
29414;SDS011;20303;48.302;11.914;2022-11-25T13:56:14;5.72;;;3.10;;
29414;SDS011;20303;48.302;11.914;2022-11-25T14:06:33;7.93;;;2.65;;
29414;SDS011;20303;48.302;11.914;2022-11-25T14:16:42;5.83;;;2.70;;
29414;SDS011;20303;48.302;11.914;2022-11-25T14:26:57;4.05;;;2.67;;
29414;SDS011;20303;48.302;11.914;2022-11-25T14:47:39;4.45;;;2.55;;
29414;SDS011;20303;48.302;11.914;2022-11-25T14:57:42;6.25;;;3.05;;
29414;SDS011;20303;48.302;11.914;2022-11-25T15:08:00;5.97;;;3.03;;
29414;SDS011;20303;48.302;11.914;2022-11-25T15:18:10;6.05;;;3.20;;
29414;SDS011;20303;48.302;11.914;2022-11-25T15:28:18;6.95;;;3.97;;
29414;SDS011;20303;48.302;11.914;2022-11-25T15:48:47;7.75;;;4.15;;
29414;SDS011;20303;48.302;11.914;2022-11-25T15:58:49;9.50;;;4.50;;
29414;SDS011;20303;48.302;11.914;2022-11-25T16:08:57;7.18;;;4.10;;
29414;SDS011;20303;48.302;11.914;2022-11-25T16:29:17;7.93;;;4.50;;
29414;SDS011;20303;48.302;11.914;2022-11-25T16:39:22;6.15;;;4.22;;
29414;SDS011;20303;48.302;11.914;2022-11-25T16:49:24;10.77;;;4.72;;
29414;SDS011;20303;48.302;11.914;2022-11-25T16:59:32;9.20;;;4.97;;
29414;SDS011;20303;48.302;11.914;2022-11-25T17:09:35;8.53;;;4.67;;
29414;SDS011;20303;48.302;11.914;2022-11-25T17:19:36;8.40;;;4.80;;
29414;SDS011;20303;48.302;11.914;2022-11-25T17:29:38;10.50;;;5.05;;
29414;SDS011;20303;48.302;11.914;2022-11-25T17:39:41;8.55;;;4.80;;
29414;SDS011;20303;48.302;11.914;2022-11-25T17:49:42;9.73;;;4.65;;
29414;SDS011;20303;48.302;11.914;2022-11-25T17:59:44;10.75;;;4.90;;
29414;SDS011;20303;48.302;11.914;2022-11-25T18:09:45;8.85;;;4.78;;
29414;SDS011;20303;48.302;11.914;2022-11-25T18:19:47;7.00;;;4.50;;
29414;SDS011;20303;48.302;11.914;2022-11-25T18:29:51;8.48;;;4.60;;
29414;SDS011;20303;48.302;11.914;2022-11-25T18:39:52;8.63;;;4.60;;
29414;SDS011;20303;48.302;11.914;2022-11-25T18:49:54;6.88;;;4.47;;
29414;SDS011;20303;48.302;11.914;2022-11-25T18:59:55;7.82;;;4.68;;
29414;SDS011;20303;48.302;11.914;2022-11-25T19:09:56;9.15;;;4.40;;
29414;SDS011;20303;48.302;11.914;2022-11-25T19:19:57;8.95;;;4.40;;
29414;SDS011;20303;48.302;11.914;2022-11-25T19:29:58;7.15;;;4.40;;
29414;SDS011;20303;48.302;11.914;2022-11-25T19:39:59;6.50;;;3.97;;
29414;SDS011;20303;48.302;11.914;2022-11-25T19:50:02;6.30;;;4.10;;
29414;SDS011;20303;48.302;11.914;2022-11-25T20:00:05;6.22;;;3.97;;
29414;SDS011;20303;48.302;11.914;2022-11-25T20:10:26;6.35;;;3.88;;
29414;SDS011;20303;48.302;11.914;2022-11-25T20:20:35;6.18;;;3.50;;
29414;SDS011;20303;48.302;11.914;2022-11-25T20:30:37;6.35;;;3.70;;
29414;SDS011;20303;48.302;11.914;2022-11-25T20:40:39;6.53;;;3.83;;
29414;SDS011;20303;48.302;11.914;2022-11-25T20:50:41;5.70;;;3.53;;
29414;SDS011;20303;48.302;11.914;2022-11-25T21:00:42;5.28;;;3.70;;
29414;SDS011;20303;48.302;11.914;2022-11-25T21:10:44;5.15;;;3.63;;
29414;SDS011;20303;48.302;11.914;2022-11-25T21:20:46;5.45;;;3.55;;
29414;SDS011;20303;48.302;11.914;2022-11-25T21:30:48;4.30;;;3.30;;
29414;SDS011;20303;48.302;11.914;2022-11-25T21:40:50;6.47;;;3.20;;
29414;SDS011;20303;48.302;11.914;2022-11-25T21:50:53;5.07;;;3.40;;
29414;SDS011;20303;48.302;11.914;2022-11-25T22:00:58;5.45;;;3.20;;
29414;SDS011;20303;48.302;11.914;2022-11-25T22:11:00;3.67;;;2.90;;
29414;SDS011;20303;48.302;11.914;2022-11-25T22:21:02;4.00;;;3.10;;
29414;SDS011;20303;48.302;11.914;2022-11-25T22:31:04;4.43;;;2.60;;
29414;SDS011;20303;48.302;11.914;2022-11-25T22:41:08;6.43;;;3.00;;
29414;SDS011;20303;48.302;11.914;2022-11-25T22:51:16;6.00;;;3.00;;
29414;SDS011;20303;48.302;11.914;2022-11-25T23:01:20;5.28;;;2.80;;
29414;SDS011;20303;48.302;11.914;2022-11-25T23:11:21;4.03;;;2.60;;
29414;SDS011;20303;48.302;11.914;2022-11-25T23:21:23;4.10;;;2.70;;
29414;SDS011;20303;48.302;11.914;2022-11-25T23:31:26;4.28;;;2.85;;
29414;SDS011;20303;48.302;11.914;2022-11-25T23:41:32;6.05;;;2.90;;
29414;SDS011;20303;48.302;11.914;2022-11-25T23:51:34;4.50;;;2.75;;
